Metar z połowy godziny Komunikat METAR ze strony awiacja.imgw.pl Metar G30 EPMM METAR EPMM 241130Z 29010KT 240V340 CAVOK 09/M02 Q1022 RMK 092 045 5/5=